Time;durP1;ratioP1;P1;durP2;ratioP2;P2;SDS_P1;SDS_P2;PMS_P1;PMS_P2;Temp;Humidity;BMP_temperature;BMP_pressure;BME280_temperature;BME280_humidity;BME280_pressure;Samples;Min_cycle;Max_cycle;Signal;HPM_P1;HPM_P2
2022/06/15 00:01:34;;;;;;;5.00;1.30;;;;;;;21.63;37.26;100607.44;5048258;28;20774;-66
2022/06/15 00:04:03;;;;;;;3.20;1.30;;;;;;;21.57;37.46;100611.81;5048252;28;20673;-67
2022/06/15 00:06:38;;;;;;;2.60;1.20;;;;;;;21.55;37.41;100605.78;5043969;28;20721;-66
2022/06/15 00:09:07;;;;;;;4.13;1.40;;;;;;;21.53;37.33;100602.50;5049627;28;20256;-66
2022/06/15 00:11:36;;;;;;;3.30;1.70;;;;;;;21.50;37.45;100607.50;5047716;28;20204;-67
2022/06/15 00:14:07;;;;;;;3.33;1.50;;;;;;;21.47;37.36;100597.13;5047382;28;20309;-67
2022/06/15 00:16:35;;;;;;;2.60;1.47;;;;;;;21.46;37.75;100596.28;5048438;28;20210;-66
2022/06/15 00:19:04;;;;;;;2.53;1.20;;;;;;;21.44;37.91;100603.81;5046571;28;21222;-66
2022/06/15 00:21:34;;;;;;;3.63;1.20;;;;;;;21.42;38.02;100603.19;5045457;28;20660;-66
2022/06/15 00:24:02;;;;;;;4.03;1.47;;;;;;;21.40;38.16;100598.00;5045940;28;20212;-66
2022/06/15 00:26:30;;;;;;;3.90;1.50;;;;;;;21.37;37.95;100590.31;5049081;28;20303;-67
2022/06/15 00:28:58;;;;;;;3.47;1.50;;;;;;;21.37;38.23;100598.41;5044315;28;20231;-67
2022/06/15 00:31:25;;;;;;;3.03;1.60;;;;;;;21.32;38.27;100598.25;5046157;28;20236;-67
2022/06/15 00:33:53;;;;;;;2.90;1.20;;;;;;;21.32;38.42;100594.72;5044394;28;20243;-66
2022/06/15 00:36:22;;;;;;;3.73;1.50;;;;;;;21.30;38.14;100602.19;5047126;28;20208;-66
2022/06/15 00:38:54;;;;;;;3.00;1.20;;;;;;;21.25;38.26;100608.25;5045863;28;20270;-66
2022/06/15 00:41:24;;;;;;;8.40;1.57;;;;;;;21.22;38.63;100600.56;5042690;28;20265;-65
2022/06/15 00:43:54;;;;;;;6.17;1.97;;;;;;;21.19;38.89;100592.94;5044996;28;20230;-66
2022/06/15 00:46:25;;;;;;;4.43;1.37;;;;;;;21.21;38.78;100587.31;5045637;28;20211;-66
2022/06/15 00:48:56;;;;;;;3.20;1.50;;;;;;;21.16;38.99;100582.53;5044701;28;20564;-67
2022/06/15 00:51:25;;;;;;;4.47;1.53;;;;;;;21.13;38.85;100585.66;5045572;28;20616;-66
2022/06/15 00:53:56;;;;;;;2.60;1.17;;;;;;;21.11;39.19;100586.94;5043728;28;20296;-66
2022/06/15 00:56:25;;;;;;;5.30;1.50;;;;;;;21.06;38.93;100590.25;5045465;28;20291;-66
2022/06/15 00:58:56;;;;;;;4.57;1.70;;;;;;;21.05;39.02;100583.19;5045604;28;20699;-66
2022/06/15 01:01:24;;;;;;;4.80;1.43;;;;;;;21.01;39.07;100584.69;5046455;28;20281;-66
2022/06/15 01:03:53;;;;;;;4.60;1.40;;;;;;;20.99;39.15;100586.75;5044385;28;20306;-67
2022/06/15 01:06:32;;;;;;;4.50;1.33;;;;;;;20.94;39.00;100583.84;5046144;28;20311;-66
2022/06/15 01:09:07;;;;;;;10.57;1.93;;;;;;;20.91;39.26;100584.28;5044903;28;20267;-67
2022/06/15 01:11:49;;;;;;;4.60;1.30;;;;;;;20.90;38.84;100577.25;5043533;28;20322;-67
2022/06/15 01:14:43;;;;;;;9.23;1.53;;;;;;;20.90;38.96;100575.38;5043773;28;20605;-66
2022/06/15 01:17:26;;;;;;;4.47;1.50;;;;;;;20.92;38.97;100577.88;5044874;28;20355;-67
2022/06/15 01:20:17;;;;;;;3.60;1.60;;;;;;;20.85;39.09;100577.03;5045152;28;20236;-67
2022/06/15 01:23:08;;;;;;;4.40;1.40;;;;;;;20.83;38.83;100576.44;5041649;28;20212;-66
2022/06/15 01:25:41;;;;;;;3.43;1.50;;;;;;;20.80;39.16;100587.66;5044786;28;20208;-66
2022/06/15 01:28:30;;;;;;;3.73;1.50;;;;;;;20.78;39.01;100581.63;5047462;28;20286;-67
2022/06/15 01:31:02;;;;;;;4.47;1.50;;;;;;;20.72;39.14;100577.09;5044347;28;20599;-66
2022/06/15 01:33:41;;;;;;;5.07;1.47;;;;;;;20.67;39.69;100580.41;5045146;28;20222;-66
2022/06/15 01:36:17;;;;;;;6.70;1.20;;;;;;;20.62;39.31;100572.97;5046731;28;20756;-66
2022/06/15 01:38:53;;;;;;;2.77;1.37;;;;;;;20.61;39.38;100571.31;5045286;28;20298;-67
2022/06/15 01:41:31;;;;;;;2.90;1.53;;;;;;;20.58;39.42;100571.72;5046256;28;20680;-65
2022/06/15 01:44:07;;;;;;;5.03;1.60;;;;;;;20.58;39.65;100570.94;5046490;28;20204;-67
2022/06/15 01:46:40;;;;;;;4.30;1.60;;;;;;;20.52;39.76;100572.56;5043365;28;20235;-66
2022/06/15 01:49:10;;;;;;;5.40;1.67;;;;;;;20.49;39.96;100562.22;5046552;28;20649;-67
2022/06/15 01:51:46;;;;;;;4.47;1.67;;;;;;;20.49;40.18;100569.50;5047095;28;20685;-67
2022/06/15 01:54:19;;;;;;;2.83;1.33;;;;;;;20.49;40.30;100558.72;5045059;28;20303;-66
2022/06/15 01:56:58;;;;;;;3.87;1.70;;;;;;;20.46;40.38;100562.66;5043053;28;20204;-67
2022/06/15 01:59:31;;;;;;;3.80;1.47;;;;;;;20.44;40.47;100563.91;5046592;28;20715;-66
2022/06/15 02:02:16;;;;;;;3.60;1.60;;;;;;;20.42;40.56;100560.56;5042889;28;20218;-66
2022/06/15 02:04:58;;;;;;;5.60;1.60;;;;;;;20.35;40.84;100560.59;5044053;28;20208;-66
2022/06/15 02:07:32;;;;;;;5.80;1.60;;;;;;;20.36;40.51;100564.94;5044926;28;20479;-66
2022/06/15 02:10:04;;;;;;;4.53;1.50;;;;;;;20.39;40.49;100569.09;5045151;28;20561;-67
2022/06/15 02:12:41;;;;;;;3.70;1.57;;;;;;;20.36;41.06;100562.25;5043972;28;20723;-67
2022/06/15 02:15:12;;;;;;;4.17;1.47;;;;;;;20.34;41.06;100564.31;5044110;28;20623;-67
2022/06/15 02:17:45;;;;;;;5.27;1.47;;;;;;;20.35;40.79;100568.69;5045251;28;20220;-67
2022/06/15 02:20:17;;;;;;;3.10;1.50;;;;;;;20.33;41.31;100567.19;5047253;28;20797;-67
2022/06/15 02:22:47;;;;;;;3.60;1.70;;;;;;;20.27;41.22;100563.47;5042986;28;20251;-68
2022/06/15 02:25:19;;;;;;;2.93;1.70;;;;;;;20.25;41.34;100570.94;5045373;28;20215;-67
2022/06/15 02:27:49;;;;;;;4.90;1.60;;;;;;;20.22;41.68;100563.28;5045554;28;20212;-66
2022/06/15 02:30:20;;;;;;;5.07;1.83;;;;;;;20.19;41.97;100558.31;5044272;28;20239;-65
2022/06/15 02:32:51;;;;;;;2.93;1.67;;;;;;;20.13;41.93;100562.69;5042920;28;20231;-65
2022/06/15 02:35:20;;;;;;;3.27;1.63;;;;;;;20.12;41.98;100561.00;5043565;28;20685;-66
2022/06/15 02:37:50;;;;;;;3.10;1.70;;;;;;;20.07;42.01;100565.34;5043917;28;20210;-66
2022/06/15 02:40:21;;;;;;;5.17;1.43;;;;;;;20.08;42.23;100553.53;5044358;28;20267;-66
2022/06/15 02:42:49;;;;;;;2.70;1.50;;;;;;;20.04;42.54;100555.84;5041012;28;20208;-66
2022/06/15 02:45:22;;;;;;;3.03;1.47;;;;;;;20.01;42.62;100558.09;5041411;28;20230;-66
2022/06/15 02:47:52;;;;;;;7.43;1.93;;;;;;;20.00;42.66;100561.84;5043453;28;20994;-65
2022/06/15 02:50:22;;;;;;;4.17;1.70;;;;;;;19.97;42.73;100556.84;5044674;28;20247;-65
2022/06/15 02:52:55;;;;;;;3.20;1.60;;;;;;;19.96;43.12;100561.44;5043965;28;20247;-65
2022/06/15 02:55:25;;;;;;;3.50;1.60;;;;;;;19.94;43.01;100563.50;5042594;28;20210;-66
2022/06/15 02:58:02;;;;;;;4.90;1.97;;;;;;;19.87;43.42;100559.97;5044068;28;20638;-65
2022/06/15 03:00:30;;;;;;;2.83;1.57;;;;;;;19.88;43.34;100558.91;5043925;28;20246;-66
2022/06/15 03:02:59;;;;;;;5.53;1.80;;;;;;;19.87;43.50;100568.88;5044226;28;20208;-65
2022/06/15 03:05:27;;;;;;;2.43;1.57;;;;;;;19.83;43.44;100561.41;5043169;28;20679;-65
2022/06/15 03:07:54;;;;;;;6.43;2.10;;;;;;;19.82;43.60;100565.13;5043723;28;20204;-65
2022/06/15 03:10:23;;;;;;;6.67;1.87;;;;;;;19.79;44.00;100563.69;5042807;28;20323;-65
2022/06/15 03:12:51;;;;;;;4.20;1.90;;;;;;;19.74;43.89;100568.03;5041569;28;20612;-66
2022/06/15 03:15:18;;;;;;;3.37;1.83;;;;;;;19.69;44.17;100557.91;5042145;28;20319;-65
2022/06/15 03:17:46;;;;;;;5.53;1.60;;;;;;;19.63;44.35;100561.38;5041931;28;20291;-65
2022/06/15 03:20:16;;;;;;;4.83;1.80;;;;;;;19.54;44.73;100566.13;5045565;28;21281;-65
2022/06/15 03:22:43;;;;;;;10.07;1.97;;;;;;;19.56;44.71;100555.19;5041660;28;20664;-65
2022/06/15 03:25:11;;;;;;;5.57;1.87;;;;;;;19.54;44.78;100559.94;5041959;28;20203;-65
2022/06/15 03:27:40;;;;;;;8.30;1.97;;;;;;;19.51;45.12;100571.13;5043482;28;20649;-66
2022/06/15 03:30:09;;;;;;;5.17;1.87;;;;;;;19.48;45.34;100564.28;5045483;28;20327;-66
2022/06/15 03:32:37;;;;;;;5.60;2.43;;;;;;;19.47;45.13;100567.13;5042740;28;20727;-66
2022/06/15 03:35:07;;;;;;;4.00;2.03;;;;;;;19.48;45.12;100566.13;5049536;28;20205;-66
2022/06/15 03:37:37;;;;;;;2.67;1.50;;;;;;;19.47;45.17;100575.19;5045135;28;20259;-66
2022/06/15 03:40:06;;;;;;;2.93;1.30;;;;;;;19.46;45.03;100571.66;5049636;28;20208;-66
2022/06/15 03:42:36;;;;;;;4.30;2.03;;;;;;;19.44;45.05;100567.53;5045946;28;20668;-67
2022/06/15 03:45:04;;;;;;;6.57;2.00;;;;;;;19.42;45.57;100556.16;5047869;28;20302;-67
2022/06/15 03:47:32;;;;;;;10.33;1.70;;;;;;;19.38;45.48;100563.78;5045609;28;20218;-66
2022/06/15 03:50:00;;;;;;;4.23;1.70;;;;;;;19.40;45.70;100572.50;5046049;28;20246;-66
2022/06/15 03:52:28;;;;;;;4.97;1.57;;;;;;;19.42;45.61;100574.97;5047151;28;20207;-66
2022/06/15 03:54:57;;;;;;;4.07;1.43;;;;;;;19.40;45.35;100568.97;5046745;28;20239;-66
2022/06/15 03:57:25;;;;;;;6.17;1.97;;;;;;;19.39;45.79;100570.00;5046160;28;20298;-67
2022/06/15 03:59:53;;;;;;;4.40;1.73;;;;;;;19.38;45.39;100576.41;5049066;28;20226;-67
2022/06/15 04:02:21;;;;;;;7.30;2.47;;;;;;;19.38;45.69;100574.56;5046538;28;20215;-67
2022/06/15 04:04:49;;;;;;;7.20;1.77;;;;;;;19.41;45.44;100578.69;5046421;28;20630;-67
2022/06/15 04:10:03;;;;;;;3.90;2.10;;;;;;;19.34;46.01;100572.50;5046617;28;20212;-68
2022/06/15 04:12:34;;;;;;;4.67;1.80;;;;;;;19.29;46.03;100573.06;5046045;28;20775;-67
2022/06/15 04:15:02;;;;;;;7.90;2.27;;;;;;;19.27;46.19;100572.44;5046283;28;20597;-68
2022/06/15 04:21:16;;;;;;;4.87;1.73;;;;;;;19.27;46.40;100563.56;5044572;28;20223;-67
2022/06/15 04:23:44;;;;;;;5.73;1.90;;;;;;;19.26;46.32;100567.28;5047551;28;20291;-67
2022/06/15 04:26:13;;;;;;;5.13;1.73;;;;;;;19.30;46.32;100571.22;5045313;28;20224;-67
2022/06/15 04:28:43;;;;;;;4.63;1.60;;;;;;;19.30;46.45;100568.53;5046099;28;20298;-67
2022/06/15 04:31:11;;;;;;;5.43;1.93;;;;;;;19.31;46.08;100567.50;5045599;28;20239;-67
2022/06/15 04:33:39;;;;;;;3.87;1.57;;;;;;;19.32;46.16;100564.63;5045584;28;20215;-67
2022/06/15 04:36:08;;;;;;;3.73;1.57;;;;;;;19.34;46.42;100572.50;5046552;28;20208;-66
2022/06/15 04:38:36;;;;;;;5.33;1.80;;;;;;;19.33;46.75;100579.72;5047882;28;20295;-67
2022/06/15 04:41:04;;;;;;;4.27;1.80;;;;;;;19.37;46.36;100566.69;5049370;28;20206;-67
2022/06/15 04:43:33;;;;;;;3.63;1.60;;;;;;;19.41;46.60;100568.78;5046682;28;20215;-66
2022/06/15 04:46:03;;;;;;;4.17;1.83;;;;;;;19.41;46.64;100570.63;5046183;28;20733;-67
2022/06/15 04:48:33;;;;;;;6.13;1.90;;;;;;;19.42;46.78;100574.97;5048152;28;20204;-66
2022/06/15 04:51:10;;;;;;;5.87;1.90;;;;;;;19.41;46.69;100568.78;5043506;28;20258;-67
2022/06/15 04:53:39;;;;;;;6.30;2.13;;;;;;;19.42;46.60;100577.69;5045520;28;20226;-66
2022/06/15 04:56:08;;;;;;;4.87;1.90;;;;;;;19.42;46.81;100574.97;5047405;28;20310;-66
2022/06/15 04:58:39;;;;;;;5.57;1.90;;;;;;;19.44;46.55;100580.97;5048223;28;20298;-67
2022/06/15 05:01:07;;;;;;;4.63;1.47;;;;;;;19.45;47.10;100585.31;5046742;28;20204;-67
2022/06/15 05:03:36;;;;;;;4.97;1.77;;;;;;;19.49;46.73;100581.25;5045432;28;20243;-67
2022/06/15 05:06:09;;;;;;;7.17;1.80;;;;;;;19.49;46.90;100576.69;5047171;28;20254;-67
2022/06/15 05:08:38;;;;;;;3.03;1.57;;;;;;;19.54;46.77;100584.13;5047076;28;20485;-67
2022/06/15 05:11:06;;;;;;;7.07;2.40;;;;;;;19.59;46.64;100588.91;5046269;28;20271;-67
2022/06/15 05:13:33;;;;;;;5.30;1.50;;;;;;;19.63;46.61;100590.16;5044857;28;20244;-67
2022/06/15 05:16:03;;;;;;;4.37;1.80;;;;;;;19.62;46.89;100592.00;5048786;28;20327;-67
2022/06/15 05:18:31;;;;;;;3.20;1.67;;;;;;;19.65;46.64;100585.41;5044401;28;20215;-67
2022/06/15 05:21:01;;;;;;;6.67;2.00;;;;;;;19.69;46.75;100598.25;5046585;28;20581;-66
2022/06/15 05:23:29;;;;;;;3.93;1.83;;;;;;;19.75;46.35;100591.22;5045987;28;20234;-66
2022/06/15 05:25:59;;;;;;;3.27;1.50;;;;;;;19.79;46.60;100592.47;5047414;28;20227;-67
2022/06/15 05:28:27;;;;;;;5.07;1.97;;;;;;;19.82;46.38;100598.25;5044042;28;20247;-66
2022/06/15 05:31:04;;;;;;;4.73;2.10;;;;;;;19.89;46.62;100596.41;5044462;28;20315;-67
2022/06/15 05:33:33;;;;;;;6.03;1.80;;;;;;;19.89;46.75;100593.72;5044824;28;20342;-67
2022/06/15 05:36:03;;;;;;;6.10;2.17;;;;;;;19.98;46.39;100598.88;5044744;28;20229;-67
2022/06/15 05:38:31;;;;;;;4.37;1.70;;;;;;;20.02;46.07;100600.16;5044068;28;20250;-67
2022/06/15 05:40:59;;;;;;;5.30;1.60;;;;;;;20.07;46.15;100594.97;5047153;28;20306;-66
2022/06/15 05:43:27;;;;;;;6.00;2.00;;;;;;;20.11;45.82;100606.97;5045865;28;20359;-67
2022/06/15 05:45:54;;;;;;;5.80;1.87;;;;;;;20.17;45.46;100601.59;5046186;28;20302;-67
2022/06/15 05:48:23;;;;;;;5.87;1.87;;;;;;;20.22;45.35;100611.75;5045855;28;20636;-67
2022/06/15 05:50:51;;;;;;;5.60;2.30;;;;;;;20.22;45.58;100601.81;5048732;28;20240;-67
2022/06/15 05:53:19;;;;;;;5.93;2.00;;;;;;;20.27;45.38;100603.88;5048009;28;20315;-67
2022/06/15 05:55:47;;;;;;;8.10;2.37;;;;;;;20.32;45.66;100606.75;5046076;28;20236;-67
2022/06/15 05:58:15;;;;;;;6.73;2.07;;;;;;;20.37;45.01;100601.63;5043935;28;20313;-67
2022/06/15 06:00:45;;;;;;;6.47;2.03;;;;;;;20.44;45.42;100602.44;5044478;28;20219;-67
2022/06/15 06:03:16;;;;;;;4.47;1.97;;;;;;;20.47;45.32;100602.03;5045554;28;20230;-67
2022/06/15 06:05:45;;;;;;;5.80;2.30;;;;;;;20.53;45.32;100600.34;5046173;28;20211;-67
2022/06/15 06:08:13;;;;;;;4.17;1.80;;;;;;;20.60;45.03;100610.06;5046894;28;20282;-67
2022/06/15 06:10:42;;;;;;;9.03;2.20;;;;;;;20.64;45.21;100600.53;5044237;28;20200;-67
2022/06/15 06:13:09;;;;;;;4.97;2.17;;;;;;;20.71;44.82;100602.38;5040687;28;20231;-66
2022/06/15 06:15:39;;;;;;;9.07;2.17;;;;;;;20.75;44.71;100600.94;5047316;28;20861;-67
2022/06/15 06:18:09;;;;;;;5.83;2.27;;;;;;;20.79;44.76;100594.06;5042558;28;20247;-67
2022/06/15 06:20:37;;;;;;;5.23;1.97;;;;;;;20.85;44.99;100601.31;5045229;28;20207;-67
2022/06/15 06:23:06;;;;;;;4.17;1.90;;;;;;;20.89;45.01;100600.69;5044724;28;20200;-67
2022/06/15 06:25:34;;;;;;;7.83;2.07;;;;;;;20.93;45.09;100596.50;5047849;28;20210;-67
2022/06/15 06:28:02;;;;;;;6.93;2.00;;;;;;;20.98;45.48;100604.78;5044665;28;20254;-67
2022/06/15 06:30:30;;;;;;;8.00;2.23;;;;;;;21.04;45.21;100600.41;5045485;28;20664;-67
2022/06/15 06:32:58;;;;;;;4.73;2.07;;;;;;;21.08;44.60;100596.25;5045046;28;20902;-67
2022/06/15 06:35:25;;;;;;;5.63;2.07;;;;;;;21.13;44.15;100592.91;5044474;28;20222;-66
2022/06/15 06:37:55;;;;;;;4.60;2.13;;;;;;;21.18;44.80;100599.38;5044739;28;20298;-66
2022/06/15 06:40:30;;;;;;;7.17;2.33;;;;;;;21.23;44.33;100588.75;5043139;28;20207;-66
2022/06/15 06:42:58;;;;;;;4.50;2.20;;;;;;;21.27;44.82;100597.25;5044054;28;20204;-67
2022/06/15 06:45:26;;;;;;;7.63;2.07;;;;;;;21.33;44.84;100601.78;5044049;28;20208;-67
2022/06/15 06:47:56;;;;;;;7.40;2.20;;;;;;;21.39;44.67;100607.13;5045069;28;20660;-68
2022/06/15 06:50:29;;;;;;;11.87;2.43;;;;;;;21.44;44.15;100602.97;5045270;28;20347;-67
2022/06/15 06:53:03;;;;;;;5.73;2.30;;;;;;;21.48;44.44;100606.88;5041614;28;20228;-67
2022/06/15 06:55:32;;;;;;;9.73;2.10;;;;;;;21.53;44.39;100598.97;5044348;28;20204;-67
2022/06/15 06:58:01;;;;;;;7.80;2.40;;;;;;;21.58;44.29;100607.25;5045712;28;20243;-68
2022/06/15 07:00:31;;;;;;;12.33;2.90;;;;;;;21.66;44.25;100606.97;5043502;28;21280;-68
2022/06/15 07:03:01;;;;;;;10.17;2.87;;;;;;;21.74;44.06;100606.72;5042610;28;20201;-68
2022/06/15 07:05:29;;;;;;;7.67;2.80;;;;;;;21.78;44.08;100605.25;5044012;28;20989;-68
2022/06/15 07:07:57;;;;;;;7.87;3.00;;;;;;;21.84;43.95;100609.78;5043701;28;20236;-69
2022/06/15 07:10:26;;;;;;;16.00;3.03;;;;;;;21.88;44.55;100594.81;5043349;28;20713;-70
2022/06/15 07:12:56;;;;;;;11.67;3.53;;;;;;;21.96;43.90;100599.09;5047439;28;20236;-68
2022/06/15 07:15:27;;;;;;;10.33;3.10;;;;;;;22.04;43.67;100599.69;5044439;28;20250;-68
2022/06/15 07:17:58;;;;;;;18.77;3.23;;;;;;;22.11;43.46;100605.03;5045685;28;20301;-67
2022/06/15 07:20:26;;;;;;;9.17;2.80;;;;;;;22.14;43.52;100610.84;5044765;28;20287;-69
2022/06/15 07:22:54;;;;;;;14.03;3.60;;;;;;;22.21;43.45;100604.53;5043936;28;21019;-68
2022/06/15 07:25:31;;;;;;;15.97;3.60;;;;;;;22.28;43.63;100610.69;5044649;28;20270;-67
2022/06/15 07:28:01;;;;;;;12.30;3.30;;;;;;;22.35;43.51;100614.16;5040224;28;20331;-69
2022/06/15 07:30:29;;;;;;;14.33;2.97;;;;;;;22.40;43.37;100608.94;5042647;28;20242;-68
2022/06/15 07:32:57;;;;;;;13.80;3.20;;;;;;;22.45;43.41;100612.63;5042166;28;20238;-66
2022/06/15 07:35:28;;;;;;;10.03;2.77;;;;;;;22.54;43.42;100618.56;5043882;28;20254;-68
2022/06/15 07:37:56;;;;;;;9.90;2.63;;;;;;;22.68;42.97;100613.88;5042187;28;20641;-68
2022/06/15 07:40:45;;;;;;;8.77;2.50;;;;;;;22.74;42.82;100611.13;5041557;28;20215;-69
2022/06/15 07:43:14;;;;;;;8.87;2.67;;;;;;;22.76;43.03;100603.63;5040622;28;20207;-68
2022/06/15 07:45:47;;;;;;;4.77;2.47;;;;;;;22.86;42.77;100612.03;5044913;28;20204;-72
2022/06/15 07:51:02;;;;;;;9.25;2.67;;;;;;;22.99;42.68;100607.50;5044722;28;20335;-68
2022/06/15 07:53:30;;;;;;;11.70;2.78;;;;;;;23.04;42.68;100604.97;5045060;28;20283;-69
2022/06/15 07:55:58;;;;;;;7.20;2.50;;;;;;;23.14;42.35;100610.66;5045592;28;20749;-68
2022/06/15 07:58:27;;;;;;;7.85;2.38;;;;;;;23.23;42.49;100609.28;5045935;28;20204;-69
2022/06/15 08:00:55;;;;;;;5.00;2.42;;;;;;;23.30;41.82;100611.94;5045794;28;20554;-69
2022/06/15 08:03:23;;;;;;;4.38;2.78;;;;;;;23.43;41.32;100615.28;5043231;28;20218;-69
2022/06/15 08:05:51;;;;;;;9.98;2.78;;;;;;;23.48;41.29;100612.72;5045736;28;20208;-70
2022/06/15 08:08:22;;;;;;;10.63;3.63;;;;;;;23.53;41.34;100603.94;5045500;28;20204;-71
2022/06/15 08:10:50;;;;;;;5.25;2.78;;;;;;;23.54;41.40;100609.13;5041974;28;20555;-71
2022/06/15 08:13:19;;;;;;;6.57;2.70;;;;;;;23.63;41.15;100610.47;5043705;28;20352;-69
2022/06/15 08:15:52;;;;;;;10.05;3.10;;;;;;;23.61;41.98;100612.56;5050978;28;20211;-71
2022/06/15 08:18:23;;;;;;;5.00;2.53;;;;;;;23.74;41.67;100605.31;5045789;28;20204;-70
2022/06/15 08:20:54;;;;;;;11.13;3.45;;;;;;;23.87;41.00;100596.97;5055023;28;20245;-69
2022/06/15 08:23:25;;;;;;;7.65;2.75;;;;;;;23.89;40.91;100608.41;5048599;28;20318;-69
2022/06/15 08:25:57;;;;;;;4.70;3.08;;;;;;;23.89;40.53;100608.41;5052102;28;20300;-69
2022/06/15 08:28:27;;;;;;;11.10;2.28;;;;;;;;;;5046701;28;20246;-68
2022/06/15 08:30:57;;;;;;;8.45;3.30;;;;;;;24.02;40.44;100594.66;5049579;28;20463;-67
2022/06/15 08:33:28;;;;;;;10.15;3.35;;;;;;;24.07;40.64;100594.78;5051862;28;20259;-67
2022/06/15 08:36:02;;;;;;;7.20;2.90;;;;;;;24.16;40.58;100593.38;5049065;28;20270;-67
2022/06/15 08:38:29;;;;;;;7.10;2.88;;;;;;;24.28;40.54;100594.22;5048293;28;20408;-68
2022/06/15 08:41:01;;;;;;;5.65;2.70;;;;;;;24.42;40.59;100596.72;5049211;28;20212;-68
2022/06/15 08:43:40;;;;;;;7.93;2.97;;;;;;;24.54;39.60;100597.56;5045833;28;20231;-68
2022/06/15 08:46:18;;;;;;;4.93;2.67;;;;;;;24.62;39.02;100598.03;5045915;28;20207;-68
2022/06/15 08:49:00;;;;;;;6.55;2.88;;;;;;;24.70;39.87;100594.13;5049802;28;20214;-67
2022/06/15 08:51:34;;;;;;;4.88;2.90;;;;;;;24.71;39.39;100591.19;5049485;28;20721;-67
2022/06/15 08:54:05;;;;;;;10.57;3.22;;;;;;;24.86;39.33;100592.56;5044085;28;20231;-67
2022/06/15 08:56:40;;;;;;;4.85;2.88;;;;;;;25.00;39.38;100588.53;5039715;28;20561;-67
2022/06/15 08:59:13;;;;;;;11.13;2.63;;;;;;;25.08;39.28;100597.13;5042414;28;20212;-67
2022/06/15 09:01:52;;;;;;;11.02;3.20;;;;;;;25.17;38.57;100594.03;5043091;28;20243;-67
2022/06/15 09:04:30;;;;;;;6.60;2.70;;;;;;;25.27;38.28;100594.22;5043367;28;20208;-68
2022/06/15 09:07:17;;;;;;;7.47;2.90;;;;;;;25.28;38.64;100598.59;5045292;28;20611;-68
2022/06/15 09:10:01;;;;;;;8.43;2.78;;;;;;;25.38;38.41;100601.50;5048394;28;20204;-68
2022/06/15 09:12:58;;;;;;;10.30;3.83;;;;;;;25.40;38.39;100597.50;5047915;28;20684;-68
2022/06/15 09:15:35;;;;;;;10.50;3.53;;;;;;;25.57;38.30;100588.56;5044417;28;20216;-68
2022/06/15 09:18:13;;;;;;;6.25;3.08;;;;;;;25.69;37.97;100590.16;5044566;28;20212;-68
2022/06/15 09:20:46;;;;;;;6.05;2.67;;;;;;;25.75;38.21;100597.38;5048437;28;20599;-68
2022/06/15 09:23:20;;;;;;;12.02;3.47;;;;;;;25.83;38.24;100594.25;5046779;28;20562;-68
2022/06/15 09:25:53;;;;;;;9.77;3.63;;;;;;;25.96;37.86;100589.53;5049641;28;20215;-68
2022/06/15 09:28:29;;;;;;;9.00;3.10;;;;;;;26.05;37.82;100590.78;5045443;28;20216;-68
2022/06/15 09:31:03;;;;;;;5.95;3.03;;;;;;;26.11;37.53;100595.25;5044070;28;20229;-68
2022/06/15 09:33:39;;;;;;;7.53;3.22;;;;;;;26.23;37.50;100588.63;5043762;28;20242;-68
2022/06/15 09:36:11;;;;;;;7.95;3.25;;;;;;;26.25;37.21;100585.69;5050251;28;20204;-68
2022/06/15 09:38:39;;;;;;;6.65;3.25;;;;;;;26.33;37.40;100590.72;5054202;28;20299;-68
2022/06/15 09:41:15;;;;;;;7.47;3.10;;;;;;;26.47;37.33;100589.31;5048257;28;20204;-69
2022/06/15 09:43:53;;;;;;;5.03;2.63;;;;;;;26.57;37.82;100591.34;5044092;28;22037;-71
2022/06/15 09:46:30;;;;;;;6.70;2.92;;;;;;;26.53;37.91;100592.94;5041622;28;20255;-70
2022/06/15 09:49:08;;;;;;;12.32;2.92;;;;;;;26.53;38.30;100588.31;5046023;28;20270;-69
2022/06/15 09:51:48;;;;;;;10.95;2.78;;;;;;;26.47;38.07;100589.31;5049250;28;20277;-67
2022/06/15 09:54:25;;;;;;;7.35;2.63;;;;;;;26.45;37.98;100596.06;5053985;28;20263;-64
2022/06/15 09:56:53;;;;;;;10.63;3.22;;;;;;;26.43;38.36;100587.34;5047713;28;20657;-64
2022/06/15 09:59:22;;;;;;;5.85;2.80;;;;;;;26.38;37.99;100585.38;5045878;28;20200;-64
2022/06/15 10:01:50;;;;;;;9.48;3.25;;;;;;;26.48;37.31;100580.06;5044644;28;20585;-64
2022/06/15 10:04:22;;;;;;;6.28;2.92;;;;;;;26.58;37.64;100576.66;5044337;28;20220;-65
2022/06/15 10:07:14;;;;;;;5.25;2.85;;;;;;;26.65;38.00;100581.94;5045114;28;20212;-64
2022/06/15 10:09:50;;;;;;;6.63;3.03;;;;;;;26.68;38.60;100584.97;5047306;28;20230;-64
2022/06/15 10:15:25;;;;;;;7.20;2.88;;;;;;;26.89;37.50;100580.63;5045240;28;20619;-64
2022/06/15 10:17:57;;;;;;;5.10;2.85;;;;;;;26.85;37.26;100585.75;5048396;28;20294;-65
2022/06/15 10:20:32;;;;;;;5.03;3.00;;;;;;;26.93;37.35;100581.78;5041946;28;20212;-67
2022/06/15 10:23:04;;;;;;;9.52;2.92;;;;;;;27.04;37.21;100583.56;5042482;28;20577;-65
2022/06/15 10:25:36;;;;;;;17.30;3.20;;;;;;;27.11;37.70;100576.03;5043273;28;20200;-64
2022/06/15 10:28:15;;;;;;;6.00;2.75;;;;;;;27.15;37.80;100579.06;5046580;28;20250;-66
2022/06/15 10:30:56;;;;;;;6.90;3.20;;;;;;;27.15;37.90;100574.47;5043578;28;20227;-68
2022/06/15 10:33:25;;;;;;;9.77;2.88;;;;;;;27.41;37.67;100572.00;5042773;28;20306;-68
2022/06/15 10:35:57;;;;;;;8.38;3.28;;;;;;;27.53;36.67;100562.59;5045026;28;20313;-68
2022/06/15 10:38:27;;;;;;;5.38;2.88;;;;;;;27.63;36.51;100564.63;5043690;28;20210;-68
2022/06/15 10:41:44;;;;;;;7.40;3.20;;;;;;;27.67;36.12;100571.22;5045853;28;20665;-68
2022/06/15 10:43:48;;;;;;;7.93;3.35;;;;;;;28.06;35.22;100563.63;5041627;28;20414;-69
2022/06/15 10:46:18;;;;;;;6.60;3.22;;;;;;;28.04;35.99;100561.19;5046865;28;20209;-68
2022/06/15 10:48:49;;;;;;;6.05;3.42;;;;;;;28.21;34.81;100561.06;5045056;28;20287;-68
2022/06/15 10:51:31;;;;;;;9.43;3.53;;;;;;;28.62;34.15;100561.28;5043221;28;20305;-68
2022/06/15 10:54:19;;;;;;;5.25;3.10;;;;;;;28.47;35.33;100559.31;5041915;28;20732;-68
2022/06/15 11:02:31;;;;;;;7.03;2.85;;;;;;;28.78;32.44;100561.13;5042815;28;21032;-69
2022/06/15 11:05:04;;;;;;;8.65;3.25;;;;;;;28.74;33.14;100554.56;5043766;28;20763;-68
2022/06/15 11:07:40;;;;;;;11.07;3.92;;;;;;;28.84;34.35;100553.00;5044672;28;20689;-67
2022/06/15 11:10:20;;;;;;;7.82;3.88;;;;;;;28.88;33.96;100548.63;5041916;28;20230;-67
2022/06/15 11:12:51;;;;;;;6.47;3.03;;;;;;;28.92;33.21;100549.75;5043196;28;20216;-68
2022/06/15 11:18:25;;;;;;;12.38;3.35;;;;;;;29.07;33.36;100541.59;5042586;28;20203;-68
2022/06/15 11:20:58;;;;;;;11.27;2.88;;;;;;;29.16;33.37;100545.44;5041935;28;20702;-67
2022/06/15 11:23:37;;;;;;;6.10;3.47;;;;;;;29.23;32.45;100535.09;5041884;28;20196;-68
2022/06/15 11:26:52;;;;;;;8.38;3.10;;;;;;;29.19;33.32;100534.81;5045279;28;20296;-66
2022/06/15 11:29:01;;;;;;;10.80;3.30;;;;;;;29.32;33.86;100532.63;5041698;28;20235;-64
2022/06/15 11:31:49;;;;;;;8.43;2.97;;;;;;;29.45;33.59;100518.50;5042141;28;20216;-64
2022/06/15 11:34:25;;;;;;;4.75;3.10;;;;;;;29.55;33.29;100521.25;5042785;28;20218;-65
2022/06/15 11:36:57;;;;;;;9.98;3.95;;;;;;;29.51;33.50;100523.69;5044351;28;20216;-64
2022/06/15 11:39:34;;;;;;;8.30;3.33;;;;;;;29.69;33.22;100521.50;5043118;28;20254;-65
2022/06/15 11:42:02;;;;;;;6.63;3.20;;;;;;;29.63;32.50;100528.09;5042896;28;20216;-65
2022/06/15 11:44:34;;;;;;;11.43;3.60;;;;;;;29.78;31.94;100525.34;5042841;28;20687;-65
2022/06/15 11:47:14;;;;;;;5.80;3.03;;;;;;;29.87;32.29;100527.25;5039443;28;20220;-65
2022/06/15 11:49:52;;;;;;;6.85;3.00;;;;;;;29.76;31.59;100522.88;5042483;28;20365;-64
2022/06/15 11:52:35;;;;;;;8.57;3.55;;;;;;;29.83;32.59;100526.16;5042541;28;20212;-65
2022/06/15 11:55:28;;;;;;;9.05;3.03;;;;;;;29.87;32.41;100520.97;5044320;28;20323;-64
2022/06/15 11:58:27;;;;;;;10.00;3.30;;;;;;;30.07;32.08;100506.50;5047117;28;20204;-64
2022/06/15 12:01:03;;;;;;;6.82;2.97;;;;;;;30.10;31.92;100505.91;5046372;28;20208;-64
2022/06/15 12:03:53;;;;;;;7.68;2.83;;;;;;;30.09;32.08;100507.00;5047315;28;20574;-63
2022/06/15 12:06:26;;;;;;;9.45;3.15;;;;;;;30.19;31.84;100505.09;5047047;28;20266;-63
2022/06/15 12:09:03;;;;;;;9.48;3.00;;;;;;;30.18;31.50;100503.44;5048577;28;20266;-65